Aviation Digital Data Service (ADDS)

Output produced by METARs form (1505 UTC 19 January 2017)
found at http://aviationweather.gov/adds/metars/
 
KMPV 191132Z 1912/2012 00000KT P6SM OVC015 
     FM191400 00000KT P6SM OVC020 
     FM191900 32006KT P6SM OVC025 
     FM200200 00000KT P6SM OVC018 
     FM200800 00000KT 3SM BR OVC018